MFN weather

Milford Sound Airport
Southland Region, New Zealand

Public forecast

Using degrees Celsius for public forecast. Weather courtesy of forecast.io.

METAR (pilot weather report)

Closest report is Christchurch International Airport, 211.1 nm (390.9 km) ENE. Retrieved 2019/05/19 14:00 UTC (5 minutes ago):

NZCH 191400Z AUTO 28003KT 9999 NCD 01/01 Q1012 NOSIG

TAF (pilot weather forecast)

Closest forecast is Queenstown International Airport, 40.5 nm (75.1 km) ESE. Retrieved 2019/05/19 12:04 UTC (2 hours ago):

TAF NZQN 191104Z 1912/2006 22008KT 9999 SKC